sensor_id;sensor_type;location;lat;lon;timestamp;temperature;humidity
66373;SHT30;53168;51.146;17.120;2022-09-01T00:00:35;15.34;69.38
66373;SHT30;53168;51.146;17.120;2022-09-01T00:03:10;15.33;69.46
66373;SHT30;53168;51.146;17.120;2022-09-01T00:05:44;15.34;69.63
66373;SHT30;53168;51.146;17.120;2022-09-01T00:08:20;15.35;69.56
66373;SHT30;53168;51.146;17.120;2022-09-01T00:10:54;15.36;69.56
66373;SHT30;53168;51.146;17.120;2022-09-01T00:13:28;15.37;69.63
66373;SHT30;53168;51.146;17.120;2022-09-01T00:16:02;15.37;69.74
66373;SHT30;53168;51.146;17.120;2022-09-01T00:18:38;15.36;69.83
66373;SHT30;53168;51.146;17.120;2022-09-01T00:21:12;15.35;69.87
66373;SHT30;53168;51.146;17.120;2022-09-01T00:23:48;15.33;69.86
66373;SHT30;53168;51.146;17.120;2022-09-01T00:26:23;15.35;69.99
66373;SHT30;53168;51.146;17.120;2022-09-01T00:28:57;15.37;69.94
66373;SHT30;53168;51.146;17.120;2022-09-01T00:31:32;15.39;70.01
66373;SHT30;53168;51.146;17.120;2022-09-01T00:34:07;15.39;69.99
66373;SHT30;53168;51.146;17.120;2022-09-01T00:36:49;15.40;70.00
66373;SHT30;53168;51.146;17.120;2022-09-01T00:39:23;15.41;69.90
66373;SHT30;53168;51.146;17.120;2022-09-01T00:41:57;15.40;70.11
66373;SHT30;53168;51.146;17.120;2022-09-01T00:44:31;15.40;70.13
66373;SHT30;53168;51.146;17.120;2022-09-01T00:47:08;15.40;70.19
66373;SHT30;53168;51.146;17.120;2022-09-01T00:49:44;15.38;70.27
66373;SHT30;53168;51.146;17.120;2022-09-01T00:52:24;15.36;70.24
66373;SHT30;53168;51.146;17.120;2022-09-01T00:55:06;15.37;70.25
66373;SHT30;53168;51.146;17.120;2022-09-01T00:57:45;15.38;70.20
66373;SHT30;53168;51.146;17.120;2022-09-01T01:00:20;15.39;70.21
66373;SHT30;53168;51.146;17.120;2022-09-01T01:02:57;15.38;70.37
66373;SHT30;53168;51.146;17.120;2022-09-01T01:05:31;15.38;70.39
66373;SHT30;53168;51.146;17.120;2022-09-01T01:08:10;15.37;70.41
66373;SHT30;53168;51.146;17.120;2022-09-01T01:10:48;15.36;70.58
66373;SHT30;53168;51.146;17.120;2022-09-01T01:13:21;15.38;70.42
66373;SHT30;53168;51.146;17.120;2022-09-01T01:15:55;15.41;70.34
66373;SHT30;53168;51.146;17.120;2022-09-01T01:18:30;15.45;70.22
66373;SHT30;53168;51.146;17.120;2022-09-01T01:21:04;15.48;70.35
66373;SHT30;53168;51.146;17.120;2022-09-01T01:24:03;15.48;70.38
66373;SHT30;53168;51.146;17.120;2022-09-01T01:26:48;15.49;70.32
66373;SHT30;53168;51.146;17.120;2022-09-01T01:29:25;15.49;70.38
66373;SHT30;53168;51.146;17.120;2022-09-01T01:32:03;15.48;70.59
66373;SHT30;53168;51.146;17.120;2022-09-01T01:34:41;15.48;70.53
66373;SHT30;53168;51.146;17.120;2022-09-01T01:37:17;15.49;70.51
66373;SHT30;53168;51.146;17.120;2022-09-01T01:39:53;15.52;70.42
66373;SHT30;53168;51.146;17.120;2022-09-01T01:42:27;15.52;70.36
66373;SHT30;53168;51.146;17.120;2022-09-01T01:45:03;15.53;70.37
66373;SHT30;53168;51.146;17.120;2022-09-01T01:47:40;15.54;70.34
66373;SHT30;53168;51.146;17.120;2022-09-01T01:50:19;15.52;70.48
66373;SHT30;53168;51.146;17.120;2022-09-01T01:52:55;15.51;70.50
66373;SHT30;53168;51.146;17.120;2022-09-01T01:55:40;15.49;70.54
66373;SHT30;53168;51.146;17.120;2022-09-01T01:58:17;15.50;70.59
66373;SHT30;53168;51.146;17.120;2022-09-01T02:00:54;15.52;70.64
66373;SHT30;53168;51.146;17.120;2022-09-01T02:03:30;15.53;70.60
66373;SHT30;53168;51.146;17.120;2022-09-01T02:06:09;15.52;70.58
66373;SHT30;53168;51.146;17.120;2022-09-01T02:08:43;15.52;70.44
66373;SHT30;53168;51.146;17.120;2022-09-01T02:11:17;15.51;70.45
66373;SHT30;53168;51.146;17.120;2022-09-01T02:13:51;15.50;70.55
66373;SHT30;53168;51.146;17.120;2022-09-01T02:16:26;15.51;70.50
66373;SHT30;53168;51.146;17.120;2022-09-01T02:19:03;15.51;70.52
66373;SHT30;53168;51.146;17.120;2022-09-01T02:21:40;15.53;70.45
66373;SHT30;53168;51.146;17.120;2022-09-01T02:24:24;15.56;70.36
66373;SHT30;53168;51.146;17.120;2022-09-01T02:27:01;15.56;70.41
66373;SHT30;53168;51.146;17.120;2022-09-01T02:29:35;15.56;70.50
66373;SHT30;53168;51.146;17.120;2022-09-01T02:32:13;15.53;70.43
66373;SHT30;53168;51.146;17.120;2022-09-01T02:34:50;15.55;70.43
66373;SHT30;53168;51.146;17.120;2022-09-01T02:37:29;15.57;70.39
66373;SHT30;53168;51.146;17.120;2022-09-01T02:40:04;15.59;70.30
66373;SHT30;53168;51.146;17.120;2022-09-01T02:42:44;15.60;70.39
66373;SHT30;53168;51.146;17.120;2022-09-01T02:45:21;15.59;70.38
66373;SHT30;53168;51.146;17.120;2022-09-01T02:47:57;15.57;70.33
66373;SHT30;53168;51.146;17.120;2022-09-01T02:50:38;15.52;70.45
66373;SHT30;53168;51.146;17.120;2022-09-01T02:53:13;15.51;70.49
66373;SHT30;53168;51.146;17.120;2022-09-01T02:55:49;15.50;70.55
66373;SHT30;53168;51.146;17.120;2022-09-01T02:58:29;15.50;70.59
66373;SHT30;53168;51.146;17.120;2022-09-01T03:01:15;15.48;70.70
66373;SHT30;53168;51.146;17.120;2022-09-01T03:03:53;15.45;70.70
66373;SHT30;53168;51.146;17.120;2022-09-01T03:06:30;15.44;70.66
66373;SHT30;53168;51.146;17.120;2022-09-01T03:09:06;15.42;70.60
66373;SHT30;53168;51.146;17.120;2022-09-01T03:11:45;15.42;70.63
66373;SHT30;53168;51.146;17.120;2022-09-01T03:14:25;15.40;70.77
66373;SHT30;53168;51.146;17.120;2022-09-01T03:17:01;15.37;70.83
66373;SHT30;53168;51.146;17.120;2022-09-01T03:19:35;15.36;70.82
66373;SHT30;53168;51.146;17.120;2022-09-01T03:22:13;15.37;70.80
66373;SHT30;53168;51.146;17.120;2022-09-01T03:24:47;15.35;70.86
66373;SHT30;53168;51.146;17.120;2022-09-01T03:27:21;15.34;70.93
66373;SHT30;53168;51.146;17.120;2022-09-01T03:29:54;15.33;70.91
66373;SHT30;53168;51.146;17.120;2022-09-01T03:32:28;15.32;70.90
66373;SHT30;53168;51.146;17.120;2022-09-01T03:35:02;15.31;70.95
66373;SHT30;53168;51.146;17.120;2022-09-01T03:37:40;15.32;70.95
66373;SHT30;53168;51.146;17.120;2022-09-01T03:40:15;15.33;70.84
66373;SHT30;53168;51.146;17.120;2022-09-01T03:42:54;15.36;70.73
66373;SHT30;53168;51.146;17.120;2022-09-01T03:45:28;15.38;70.74
66373;SHT30;53168;51.146;17.120;2022-09-01T03:48:04;15.38;70.76
66373;SHT30;53168;51.146;17.120;2022-09-01T03:50:42;15.36;70.92
66373;SHT30;53168;51.146;17.120;2022-09-01T03:53:17;15.32;71.06
66373;SHT30;53168;51.146;17.120;2022-09-01T03:55:57;15.29;71.04
66373;SHT30;53168;51.146;17.120;2022-09-01T03:58:35;15.30;71.13
66373;SHT30;53168;51.146;17.120;2022-09-01T04:01:14;15.29;71.06
66373;SHT30;53168;51.146;17.120;2022-09-01T04:04:19;15.31;71.01
66373;SHT30;53168;51.146;17.120;2022-09-01T04:06:53;15.32;71.00
66373;SHT30;53168;51.146;17.120;2022-09-01T04:09:30;15.31;71.10
66373;SHT30;53168;51.146;17.120;2022-09-01T04:12:06;15.31;71.10
66373;SHT30;53168;51.146;17.120;2022-09-01T04:14:42;15.29;71.23
66373;SHT30;53168;51.146;17.120;2022-09-01T04:17:16;15.30;71.31
66373;SHT30;53168;51.146;17.120;2022-09-01T04:20:08;15.32;71.38
66373;SHT30;53168;51.146;17.120;2022-09-01T04:22:49;15.35;71.39
66373;SHT30;53168;51.146;17.120;2022-09-01T04:25:23;15.38;71.36
66373;SHT30;53168;51.146;17.120;2022-09-01T04:27:56;15.39;71.39
66373;SHT30;53168;51.146;17.120;2022-09-01T04:30:45;15.40;71.41
66373;SHT30;53168;51.146;17.120;2022-09-01T04:33:23;15.40;71.42
66373;SHT30;53168;51.146;17.120;2022-09-01T04:36:12;15.41;71.58
66373;SHT30;53168;51.146;17.120;2022-09-01T04:38:51;15.42;71.56
66373;SHT30;53168;51.146;17.120;2022-09-01T04:41:29;15.43;71.63
66373;SHT30;53168;51.146;17.120;2022-09-01T04:44:06;15.39;71.74
66373;SHT30;53168;51.146;17.120;2022-09-01T04:46:41;15.37;71.64
66373;SHT30;53168;51.146;17.120;2022-09-01T04:49:17;15.36;71.65
66373;SHT30;53168;51.146;17.120;2022-09-01T04:51:54;15.37;71.78
66373;SHT30;53168;51.146;17.120;2022-09-01T04:54:28;15.37;71.73
66373;SHT30;53168;51.146;17.120;2022-09-01T04:57:06;15.40;71.86
66373;SHT30;53168;51.146;17.120;2022-09-01T04:59:40;15.44;71.84
66373;SHT30;53168;51.146;17.120;2022-09-01T05:02:14;15.48;71.74
66373;SHT30;53168;51.146;17.120;2022-09-01T05:04:48;15.54;71.64
66373;SHT30;53168;51.146;17.120;2022-09-01T05:07:23;15.58;71.59
66373;SHT30;53168;51.146;17.120;2022-09-01T05:09:59;15.60;71.63
66373;SHT30;53168;51.146;17.120;2022-09-01T05:12:48;15.60;71.81
66373;SHT30;53168;51.146;17.120;2022-09-01T05:15:22;15.60;71.85
66373;SHT30;53168;51.146;17.120;2022-09-01T05:17:55;15.62;71.87
66373;SHT30;53168;51.146;17.120;2022-09-01T05:20:30;15.65;71.81
66373;SHT30;53168;51.146;17.120;2022-09-01T05:23:06;15.71;71.76
66373;SHT30;53168;51.146;17.120;2022-09-01T05:25:42;15.77;71.60
66373;SHT30;53168;51.146;17.120;2022-09-01T05:28:19;15.81;71.72
66373;SHT30;53168;51.146;17.120;2022-09-01T05:30:55;15.83;71.76
66373;SHT30;53168;51.146;17.120;2022-09-01T05:33:33;15.89;71.58
66373;SHT30;53168;51.146;17.120;2022-09-01T05:36:13;15.96;71.45
66373;SHT30;53168;51.146;17.120;2022-09-01T05:38:52;16.02;71.27
66373;SHT30;53168;51.146;17.120;2022-09-01T05:41:27;16.07;71.30
66373;SHT30;53168;51.146;17.120;2022-09-01T05:44:04;16.10;71.15
66373;SHT30;53168;51.146;17.120;2022-09-01T05:46:39;16.14;71.10
66373;SHT30;53168;51.146;17.120;2022-09-01T05:49:13;16.19;70.96
66373;SHT30;53168;51.146;17.120;2022-09-01T05:51:49;16.23;70.83
66373;SHT30;53168;51.146;17.120;2022-09-01T05:54:28;16.31;70.73
66373;SHT30;53168;51.146;17.120;2022-09-01T05:57:03;16.30;70.49
66373;SHT30;53168;51.146;17.120;2022-09-01T05:59:57;16.33;70.43
66373;SHT30;53168;51.146;17.120;2022-09-01T06:02:40;16.38;70.38
66373;SHT30;53168;51.146;17.120;2022-09-01T06:05:20;16.44;70.25
66373;SHT30;53168;51.146;17.120;2022-09-01T06:07:56;16.51;70.13
66373;SHT30;53168;51.146;17.120;2022-09-01T06:10:30;16.59;70.00
66373;SHT30;53168;51.146;17.120;2022-09-01T06:13:08;16.67;69.89
66373;SHT30;53168;51.146;17.120;2022-09-01T06:15:43;16.74;69.74
66373;SHT30;53168;51.146;17.120;2022-09-01T06:18:20;16.81;69.71
66373;SHT30;53168;51.146;17.120;2022-09-01T06:20:58;16.86;69.43
66373;SHT30;53168;51.146;17.120;2022-09-01T06:23:36;16.94;69.37
66373;SHT30;53168;51.146;17.120;2022-09-01T06:26:16;17.02;69.20
66373;SHT30;53168;51.146;17.120;2022-09-01T06:28:57;17.08;69.10
66373;SHT30;53168;51.146;17.120;2022-09-01T06:31:37;17.12;69.04
66373;SHT30;53168;51.146;17.120;2022-09-01T06:34:16;17.17;68.96
66373;SHT30;53168;51.146;17.120;2022-09-01T06:36:51;17.22;68.92
66373;SHT30;53168;51.146;17.120;2022-09-01T06:39:28;17.28;68.62
66373;SHT30;53168;51.146;17.120;2022-09-01T06:42:06;17.27;68.18
66373;SHT30;53168;51.146;17.120;2022-09-01T06:44:50;17.24;68.18
66373;SHT30;53168;51.146;17.120;2022-09-01T06:47:24;17.23;68.29
66373;SHT30;53168;51.146;17.120;2022-09-01T06:49:59;17.31;68.41
66373;SHT30;53168;51.146;17.120;2022-09-01T06:52:36;17.42;68.28
66373;SHT30;53168;51.146;17.120;2022-09-01T06:55:30;17.48;67.73
66373;SHT30;53168;51.146;17.120;2022-09-01T06:58:06;17.50;67.76
66373;SHT30;53168;51.146;17.120;2022-09-01T07:00:48;17.50;67.41
66373;SHT30;53168;51.146;17.120;2022-09-01T07:03:25;17.50;67.05
66373;SHT30;53168;51.146;17.120;2022-09-01T07:06:14;17.48;66.85
66373;SHT30;53168;51.146;17.120;2022-09-01T07:09:19;17.43;66.77
66373;SHT30;53168;51.146;17.120;2022-09-01T07:12:21;17.43;66.19
66373;SHT30;53168;51.146;17.120;2022-09-01T07:15:16;17.47;66.16
66373;SHT30;53168;51.146;17.120;2022-09-01T07:18:14;17.59;66.35
66373;SHT30;53168;51.146;17.120;2022-09-01T07:20:51;17.61;65.59
66373;SHT30;53168;51.146;17.120;2022-09-01T07:23:46;17.71;65.93
66373;SHT30;53168;51.146;17.120;2022-09-01T07:26:49;17.85;66.17
66373;SHT30;53168;51.146;17.120;2022-09-01T07:29:23;18.00;66.02
66373;SHT30;53168;51.146;17.120;2022-09-01T07:31:58;18.18;65.26
66373;SHT30;53168;51.146;17.120;2022-09-01T07:34:53;18.25;64.86
66373;SHT30;53168;51.146;17.120;2022-09-01T07:37:29;18.34;65.31
66373;SHT30;53168;51.146;17.120;2022-09-01T07:40:26;18.52;64.42
66373;SHT30;53168;51.146;17.120;2022-09-01T07:43:40;18.61;63.86
66373;SHT30;53168;51.146;17.120;2022-09-01T07:46:32;18.64;63.22
66373;SHT30;53168;51.146;17.120;2022-09-01T07:49:10;18.67;62.99
66373;SHT30;53168;51.146;17.120;2022-09-01T07:52:04;18.70;62.24
66373;SHT30;53168;51.146;17.120;2022-09-01T07:54:38;18.71;62.37
66373;SHT30;53168;51.146;17.120;2022-09-01T07:57:13;18.75;62.09
66373;SHT30;53168;51.146;17.120;2022-09-01T07:59:48;18.78;61.90
66373;SHT30;53168;51.146;17.120;2022-09-01T08:02:40;18.84;61.47
66373;SHT30;53168;51.146;17.120;2022-09-01T08:05:17;18.93;62.10
66373;SHT30;53168;51.146;17.120;2022-09-01T08:07:55;19.00;61.24
66373;SHT30;53168;51.146;17.120;2022-09-01T08:10:33;19.07;61.48
66373;SHT30;53168;51.146;17.120;2022-09-01T08:13:11;19.14;60.63
66373;SHT30;53168;51.146;17.120;2022-09-01T08:15:50;19.18;59.87
66373;SHT30;53168;51.146;17.120;2022-09-01T08:18:48;19.20;59.96
66373;SHT30;53168;51.146;17.120;2022-09-01T08:21:28;19.24;59.35
66373;SHT30;53168;51.146;17.120;2022-09-01T08:24:28;19.35;59.40
66373;SHT30;53168;51.146;17.120;2022-09-01T08:27:02;19.38;58.80
66373;SHT30;53168;51.146;17.120;2022-09-01T08:29:38;19.37;57.98
66373;SHT30;53168;51.146;17.120;2022-09-01T08:32:12;19.40;58.86
66373;SHT30;53168;51.146;17.120;2022-09-01T08:34:46;19.52;59.08
66373;SHT30;53168;51.146;17.120;2022-09-01T08:37:20;19.68;58.66
66373;SHT30;53168;51.146;17.120;2022-09-01T08:39:55;19.79;58.61
66373;SHT30;53168;51.146;17.120;2022-09-01T08:42:39;19.88;58.44
66373;SHT30;53168;51.146;17.120;2022-09-01T08:45:28;19.87;57.52
66373;SHT30;53168;51.146;17.120;2022-09-01T08:48:14;19.87;57.74
66373;SHT30;53168;51.146;17.120;2022-09-01T08:51:14;20.03;57.51
66373;SHT30;53168;51.146;17.120;2022-09-01T08:54:03;20.17;56.38
66373;SHT30;53168;51.146;17.120;2022-09-01T08:56:58;20.30;55.92
66373;SHT30;53168;51.146;17.120;2022-09-01T08:59:58;20.36;56.09
66373;SHT30;53168;51.146;17.120;2022-09-01T09:02:44;20.37;55.40
66373;SHT30;53168;51.146;17.120;2022-09-01T09:05:41;20.24;54.90
66373;SHT30;53168;51.146;17.120;2022-09-01T09:08:47;20.26;54.89
66373;SHT30;53168;51.146;17.120;2022-09-01T09:11:33;20.29;55.22
66373;SHT30;53168;51.146;17.120;2022-09-01T09:14:43;20.28;54.75
66373;SHT30;53168;51.146;17.120;2022-09-01T09:17:33;20.37;54.42
66373;SHT30;53168;51.146;17.120;2022-09-01T09:20:15;20.52;54.36
66373;SHT30;53168;51.146;17.120;2022-09-01T09:22:50;20.64;53.97
66373;SHT30;53168;51.146;17.120;2022-09-01T09:25:28;20.81;53.86
66373;SHT30;53168;51.146;17.120;2022-09-01T09:28:02;21.07;53.99
66373;SHT30;53168;51.146;17.120;2022-09-01T09:30:40;21.31;53.09
66373;SHT30;53168;51.146;17.120;2022-09-01T09:36:23;21.69;52.43
66373;SHT30;53168;51.146;17.120;2022-09-01T09:39:08;21.62;52.45
66373;SHT30;53168;51.146;17.120;2022-09-01T09:41:59;21.68;52.82
66373;SHT30;53168;51.146;17.120;2022-09-01T09:44:41;21.79;52.28
66373;SHT30;53168;51.146;17.120;2022-09-01T09:47:34;21.82;51.34
66373;SHT30;53168;51.146;17.120;2022-09-01T09:50:17;21.81;50.99
